^^
Saratoga-Weather Station Historical Data
Daily Summary for February 11, 2020 Units:  Metric    English   Both
Daily Weekly Monthly Yearly Custom
  High: Low: Average:
Temperature: 13.1 °C 7.5 °C 9.5 °C
Dew Point: 8 °C 4.1 °C 6.4 °C
Humidity: 94% 57% 82%
Wind Speed: 14.3km/h 0km/h 4.2km/h
Wind Gust: 17.7km/h - -
Wind- - West
Pressure: 1021.3 hPa 1019.3 hPa -
Precipitation: 0.2 mm    
Historical Graphs
 
 
Tabular Data for February 11, 2020
Time Temperature Dew Point Pressure Wind Wind Speed Wind Gust Humidity Rainfall Rate (Hourly) solar
00:01 7.8 °C 5.1 °C 1021.0 hPa West 3.2 km/h 11.3 km/h 83% 0.0 mm 0 W/m2
00:06 7.8 °C 5.1 °C 1021.0 hPa SSW 3.2 km/h 12.9 km/h 83% 0.0 mm 0 W/m2
00:11 7.7 °C 5 °C 1021.0 hPa WNW 4.7 km/h 14.5 km/h 83% 0.0 mm 0 W/m2
00:16 7.7 °C 5 °C 1020.7 hPa WNW 7.9 km/h 16.1 km/h 83% 0.0 mm 0 W/m2
00:21 7.8 °C 5.1 °C 1020.7 hPa SSW 9.7 km/h 9.7 km/h 83% 0.0 mm 0 W/m2
00:26 7.8 °C 5.1 °C 1021.0 hPa West 4.7 km/h 16.1 km/h 83% 0.0 mm 0 W/m2
00:31 7.8 °C 5.1 °C 1020.7 hPa West 4.7 km/h 9.7 km/h 83% 0.0 mm 0 W/m2
00:36 7.8 °C 5.1 °C 1020.7 hPa West 9.7 km/h 14.5 km/h 83% 0.0 mm 0 W/m2
00:41 7.8 °C 5.1 °C 1020.7 hPa SSE 3.2 km/h 9.7 km/h 83% 0.0 mm 0 W/m2
00:46 7.8 °C 5.1 °C 1020.7 hPa SE 4.7 km/h 14.5 km/h 83% 0.0 mm 0 W/m2
00:51 7.9 °C 5.2 °C 1020.7 hPa West 6.4 km/h 11.3 km/h 83% 0.0 mm 0 W/m2
00:56 8 °C 5.3 °C 1020.7 hPa WNW 4.7 km/h 12.9 km/h 83% 0.0 mm 0 W/m2
01:01 8.1 °C 5.4 °C 1020.7 hPa WSW 1.4 km/h 9.7 km/h 83% 0.0 mm 0 W/m2
01:06 8.1 °C 5.4 °C 1020.7 hPa WSW 3.2 km/h 12.9 km/h 83% 0.0 mm 0 W/m2
01:11 8.1 °C 5.4 °C 1020.7 hPa NW 4.7 km/h 14.5 km/h 83% 0.0 mm 0 W/m2
01:16 8.1 °C 5.4 °C 1020.7 hPa WNW 4.7 km/h 6.4 km/h 83% 0.0 mm 0 W/m2
01:21 8.1 °C 5.4 °C 1020.7 hPa WSW 4.7 km/h 11.3 km/h 83% 0.0 mm 0 W/m2
01:26 7.9 °C 5.4 °C 1020.7 hPa SW 6.4 km/h 14.5 km/h 84% 0.0 mm 0 W/m2
01:31 7.9 °C 5.4 °C 1020.7 hPa West 3.2 km/h 9.7 km/h 84% 0.0 mm 0 W/m2
01:36 7.9 °C 5.4 °C 1020.3 hPa SW 3.2 km/h 9.7 km/h 84% 0.0 mm 0 W/m2
01:41 7.8 °C 5.4 °C 1020.7 hPa NW 4.7 km/h 17.7 km/h 85% 0.0 mm 0 W/m2
01:47 7.8 °C 5.4 °C 1020.7 hPa WNW 7.9 km/h 8 km/h 85% 0.0 mm 0 W/m2
01:52 7.8 °C 5.4 °C 1020.3 hPa NW 6.4 km/h 16.1 km/h 85% 0.0 mm 0 W/m2
01:57 7.8 °C 5.6 °C 1020.3 hPa West 14.3 km/h 14.5 km/h 86% 0.0 mm 0 W/m2
02:02 7.8 °C 5.6 °C 1020.3 hPa West 6.4 km/h 14.5 km/h 86% 0.0 mm 0 W/m2
02:07 7.8 °C 5.6 °C 1020.3 hPa West 9.7 km/h 14.5 km/h 86% 0.0 mm 0 W/m2
02:12 7.8 °C 5.6 °C 1020.3 hPa West 6.4 km/h 11.3 km/h 86% 0.0 mm 0 W/m2
02:17 7.7 °C 5.5 °C 1020.3 hPa WNW 4.7 km/h 14.5 km/h 86% 0.0 mm 0 W/m2
02:22 7.7 °C 5.5 °C 1020.3 hPa West 6.4 km/h 14.5 km/h 86% 0.0 mm 0 W/m2
02:27 7.7 °C 5.7 °C 1020.0 hPa WSW 7.9 km/h 12.9 km/h 87% 0.0 mm 0 W/m2
02:32 7.7 °C 5.7 °C 1020.0 hPa WSW 4.7 km/h 12.9 km/h 87% 0.0 mm 0 W/m2
02:37 7.7 °C 5.7 °C 1020.0 hPa West 9.7 km/h 16.1 km/h 87% 0.0 mm 0 W/m2
02:42 7.7 °C 5.7 °C 1020.0 hPa WSW 7.9 km/h 12.9 km/h 87% 0.0 mm 0 W/m2
02:47 7.7 °C 5.7 °C 1020.0 hPa WNW 3.2 km/h 17.7 km/h 87% 0.0 mm 0 W/m2
02:52 7.8 °C 5.8 °C 1020.0 hPa WNW 11.1 km/h 11.3 km/h 87% 0.0 mm 0 W/m2
02:57 7.8 °C 5.8 °C 1020.0 hPa WNW 4.7 km/h 17.7 km/h 87% 0.0 mm 0 W/m2
03:02 7.7 °C 5.7 °C 1020.0 hPa WNW 11.1 km/h 11.3 km/h 87% 0.0 mm 0 W/m2
03:07 7.7 °C 5.7 °C 1020.0 hPa West 1.4 km/h 9.7 km/h 87% 0.0 mm 0 W/m2
03:12 7.6 °C 5.6 °C 1020.0 hPa West 6.4 km/h 17.7 km/h 87% 0.0 mm 0 W/m2
03:17 7.7 °C 5.8 °C 1020.0 hPa NW 7.9 km/h 12.9 km/h 88% 0.0 mm 0 W/m2
03:22 7.7 °C 5.8 °C 1020.0 hPa West 4.7 km/h 14.5 km/h 88% 0.0 mm 0 W/m2
03:27 7.8 °C 5.9 °C 1020.0 hPa WNW 11.1 km/h 14.5 km/h 88% 0.0 mm 0 W/m2
03:32 7.9 °C 6 °C 1020.0 hPa WNW 4.7 km/h 14.5 km/h 88% 0.0 mm 0 W/m2
03:37 7.8 °C 5.9 °C 1020.0 hPa West 4.7 km/h 16.1 km/h 88% 0.0 mm 0 W/m2
03:42 7.8 °C 6.1 °C 1020.0 hPa West 4.7 km/h 9.7 km/h 89% 0.0 mm 0 W/m2
03:47 7.7 °C 6 °C 1020.0 hPa West 6.4 km/h 16.1 km/h 89% 0.2 mm 0 W/m2
03:52 7.6 °C 6.1 °C 1019.6 hPa West 9.7 km/h 11.3 km/h 90% 0.2 mm 0 W/m2
03:57 7.6 °C 6.1 °C 1019.6 hPa WNW 1.4 km/h 12.9 km/h 90% 0.2 mm 0 W/m2
04:02 7.6 °C 6.2 °C 1019.6 hPa WNW 4.7 km/h 9.7 km/h 91% 0.2 mm 0 W/m2
04:07 7.5 °C 6.1 °C 1019.6 hPa West 3.2 km/h 12.9 km/h 91% 0.2 mm 0 W/m2
04:12 7.5 °C 6.1 °C 1019.6 hPa SW 1.4 km/h 6.4 km/h 91% 0.2 mm 0 W/m2
04:17 7.5 °C 6.1 °C 1019.6 hPa SSW 4.7 km/h 14.5 km/h 91% 0.2 mm 0 W/m2
04:22 7.5 °C 6.1 °C 1019.6 hPa WNW 3.2 km/h 12.9 km/h 91% 0.2 mm 0 W/m2
04:27 7.5 °C 6.1 °C 1020.0 hPa WNW 1.4 km/h 9.7 km/h 91% 0.2 mm 0 W/m2
04:32 7.6 °C 6.2 °C 1019.6 hPa WSW 4.7 km/h 4.8 km/h 91% 0.2 mm 0 W/m2
04:37 7.6 °C 6.2 °C 1019.6 hPa WSW 3.2 km/h 8 km/h 91% 0.2 mm 0 W/m2
04:42 7.6 °C 6.2 °C 1019.6 hPa West 6.4 km/h 11.3 km/h 91% 0.2 mm 0 W/m2
04:47 7.6 °C 6.2 °C 1019.6 hPa West 3.2 km/h 11.3 km/h 91% 0.0 mm 0 W/m2
04:52 7.6 °C 6.2 °C 1019.6 hPa West 3.2 km/h 9.7 km/h 91% 0.0 mm 0 W/m2
04:57 7.6 °C 6.4 °C 1019.6 hPa West 3.2 km/h 6.4 km/h 92% 0.0 mm 0 W/m2
05:02 7.6 °C 6.4 °C 1019.6 hPa West 3.2 km/h 9.7 km/h 92% 0.0 mm 0 W/m2
05:07 7.6 °C 6.4 °C 1019.6 hPa WSW 4.7 km/h 12.9 km/h 92% 0.0 mm 0 W/m2
05:12 7.6 °C 6.4 °C 1019.6 hPa WSW 7.9 km/h 14.5 km/h 92% 0.0 mm 0 W/m2
05:17 7.6 °C 6.4 °C 1019.6 hPa West 6.4 km/h 11.3 km/h 92% 0.0 mm 0 W/m2
05:22 7.6 °C 6.4 °C 1019.6 hPa West 1.4 km/h 14.5 km/h 92% 0.0 mm 0 W/m2
05:27 7.6 °C 6.4 °C 1019.6 hPa WSW 4.7 km/h 12.9 km/h 92% 0.0 mm 0 W/m2
05:32 7.6 °C 6.4 °C 1019.6 hPa WNW 3.2 km/h 11.3 km/h 92% 0.0 mm 0 W/m2
05:37 7.6 °C 6.4 °C 1019.6 hPa NW 4.7 km/h 12.9 km/h 92% 0.0 mm 0 W/m2
05:42 7.6 °C 6.4 °C 1019.6 hPa WSW 4.7 km/h 11.3 km/h 92% 0.0 mm 0 W/m2
05:47 7.7 °C 6.6 °C 1019.6 hPa WNW 4.7 km/h 12.9 km/h 93% 0.0 mm 0 W/m2
05:52 7.7 °C 6.6 °C 1019.6 hPa NW 4.7 km/h 9.7 km/h 93% 0.0 mm 0 W/m2
05:57 7.7 °C 6.6 °C 1019.6 hPa West 4.7 km/h 11.3 km/h 93% 0.0 mm 0 W/m2
06:02 7.8 °C 6.7 °C 1019.6 hPa WSW 3.2 km/h 9.7 km/h 93% 0.0 mm 0 W/m2
06:08 7.8 °C 6.7 °C 1019.6 hPa Calm   3.2 km/h 93% 0.0 mm 0 W/m2
06:13 7.7 °C 6.6 °C 1019.6 hPa Calm   4.8 km/h 93% 0.0 mm 0 W/m2
06:18 7.7 °C 6.6 °C 1019.6 hPa WNW 3.2 km/h 4.8 km/h 93% 0.0 mm 0 W/m2
06:23 7.8 °C 6.7 °C 1019.6 hPa WNW 1.4 km/h 6.4 km/h 93% 0.0 mm 0 W/m2
06:28 7.8 °C 6.7 °C 1019.6 hPa WNW 1.4 km/h 3.2 km/h 93% 0.0 mm 0 W/m2
06:33 7.8 °C 6.7 °C 1019.6 hPa Calm   1.6 km/h 93% 0.0 mm 0 W/m2
06:38 7.8 °C 6.7 °C 1019.6 hPa Calm   3.2 km/h 93% 0.0 mm 0 W/m2
06:43 7.8 °C 6.7 °C 1019.6 hPa Calm   1.6 km/h 93% 0.0 mm 0 W/m2
06:48 7.8 °C 6.7 °C 1019.6 hPa WNW 1.4 km/h 1.6 km/h 93% 0.0 mm 0 W/m2
06:53 7.8 °C 6.7 °C 1019.6 hPa Calm   1.6 km/h 93% 0.0 mm 0 W/m2
06:58 7.8 °C 6.7 °C 1019.6 hPa Calm   1.6 km/h 93% 0.0 mm 0 W/m2
07:03 7.8 °C 6.7 °C 1019.6 hPa Calm     93% 0.0 mm 0 W/m2
07:08 7.8 °C 6.7 °C 1019.6 hPa Calm   1.6 km/h 93% 0.0 mm 0 W/m2
07:13 7.8 °C 6.7 °C 1019.6 hPa Calm     93% 0.0 mm 0 W/m2
07:18 7.8 °C 6.9 °C 1019.6 hPa Calm     94% 0.0 mm 0 W/m2
07:23 7.8 °C 6.9 °C 1019.6 hPa WNW 3.2 km/h 3.2 km/h 94% 0.0 mm 0 W/m2
07:28 7.8 °C 6.9 °C 1019.6 hPa WNW 1.4 km/h 1.6 km/h 94% 0.0 mm 0 W/m2
07:33 7.8 °C 6.9 °C 1019.6 hPa Calm     94% 0.0 mm 0 W/m2
07:38 7.8 °C 6.9 °C 1019.6 hPa Calm     94% 0.0 mm 0 W/m2
07:43 7.8 °C 6.9 °C 1019.6 hPa Calm     94% 0.0 mm 0 W/m2
07:48 7.8 °C 6.9 °C 1019.6 hPa Calm     94% 0.0 mm 0 W/m2
07:53 7.8 °C 6.9 °C 1019.6 hPa WNW 3.2 km/h 3.2 km/h 94% 0.0 mm 5 W/m2
07:58 7.8 °C 6.9 °C 1019.6 hPa WNW 1.4 km/h 4.8 km/h 94% 0.0 mm 7 W/m2
08:03 7.9 °C 7 °C 1019.6 hPa WNW 1.4 km/h 4.8 km/h 94% 0.0 mm 7 W/m2
08:08 7.9 °C 7 °C 1019.6 hPa Calm   4.8 km/h 94% 0.0 mm 9 W/m2
08:13 8 °C 7.1 °C 1019.6 hPa WNW 4.7 km/h 4.8 km/h 94% 0.0 mm 12 W/m2
08:18 8 °C 7.1 °C 1019.6 hPa West 1.4 km/h 3.2 km/h 94% 0.0 mm 12 W/m2
08:23 8.1 °C 7.2 °C 1019.6 hPa Calm   3.2 km/h 94% 0.0 mm 11 W/m2
08:28 8.1 °C 7.2 °C 1019.6 hPa West 3.2 km/h 3.2 km/h 94% 0.0 mm 11 W/m2
08:33 8.1 °C 7.2 °C 1019.6 hPa Calm   3.2 km/h 94% 0.0 mm 11 W/m2
08:38 8.1 °C 7.2 °C 1019.6 hPa WNW 1.4 km/h 3.2 km/h 94% 0.0 mm 12 W/m2
08:43 8.2 °C 7.3 °C 1019.6 hPa WNW 1.4 km/h 3.2 km/h 94% 0.0 mm 19 W/m2
08:48 8.2 °C 7.3 °C 1020.0 hPa Calm   4.8 km/h 94% 0.0 mm 33 W/m2
08:53 8.2 °C 7.3 °C 1020.0 hPa Calm   3.2 km/h 94% 0.0 mm 42 W/m2
08:58 8.2 °C 7.3 °C 1020.0 hPa NW 1.4 km/h 1.6 km/h 94% 0.0 mm 44 W/m2
09:03 8.3 °C 7.4 °C 1020.0 hPa Calm   1.6 km/h 94% 0.0 mm 49 W/m2
09:08 8.3 °C 7.4 °C 1020.0 hPa Calm   1.6 km/h 94% 0.0 mm 47 W/m2
09:13 8.4 °C 7.5 °C 1020.0 hPa NW 1.4 km/h 1.6 km/h 94% 0.0 mm 42 W/m2
09:18 8.4 °C 7.5 °C 1020.0 hPa West 3.2 km/h 4.8 km/h 94% 0.0 mm 63 W/m2
09:23 8.5 °C 7.6 °C 1020.0 hPa WNW 4.7 km/h 6.4 km/h 94% 0.0 mm 67 W/m2
09:28 8.5 °C 7.6 °C 1020.3 hPa WNW 1.4 km/h 3.2 km/h 94% 0.0 mm 54 W/m2
09:33 8.6 °C 7.7 °C 1020.0 hPa Calm   3.2 km/h 94% 0.0 mm 47 W/m2
09:38 8.6 °C 7.7 °C 1020.3 hPa WNW 1.4 km/h 1.6 km/h 94% 0.0 mm 65 W/m2
09:43 8.7 °C 7.8 °C 1020.3 hPa Calm     94% 0.0 mm 81 W/m2
09:48 8.7 °C 7.8 °C 1020.0 hPa Calm     94% 0.0 mm 60 W/m2
09:53 8.8 °C 7.7 °C 1020.3 hPa Calm     93% 0.0 mm 76 W/m2
09:58 8.8 °C 7.7 °C 1020.3 hPa Calm     93% 0.0 mm 109 W/m2
10:03 8.9 °C 7.8 °C 1020.3 hPa Calm   3.2 km/h 93% 0.0 mm 132 W/m2
10:08 9 °C 7.8 °C 1020.0 hPa WNW 3.2 km/h 4.8 km/h 92% 0.0 mm 153 W/m2
10:13 9.2 °C 8 °C 1020.3 hPa West 3.2 km/h 3.2 km/h 92% 0.0 mm 283 W/m2
10:18 9.3 °C 7.9 °C 1020.3 hPa Calm     91% 0.0 mm 149 W/m2
10:23 9.4 °C 7.8 °C 1020.3 hPa WNW 1.4 km/h 9.7 km/h 90% 0.0 mm 77 W/m2
10:28 9.5 °C 7.8 °C 1020.3 hPa West 3.2 km/h 6.4 km/h 89% 0.0 mm 329 W/m2
10:33 9.6 °C 7.9 °C 1020.3 hPa WNW 3.2 km/h 11.3 km/h 89% 0.0 mm 336 W/m2
10:38 9.8 °C 7.7 °C 1020.3 hPa West 6.4 km/h 11.3 km/h 87% 0.0 mm 367 W/m2
10:43 9.8 °C 7.7 °C 1020.3 hPa NW 3.2 km/h 6.4 km/h 87% 0.0 mm 104 W/m2
10:48 10 °C 7.9 °C 1020.3 hPa WNW 1.4 km/h 11.3 km/h 87% 0.0 mm 476 W/m2
10:53 10.2 °C 8 °C 1020.3 hPa West 3.2 km/h 6.4 km/h 86% 0.0 mm 566 W/m2
10:58 10.3 °C 7.9 °C 1020.3 hPa WSW 9.7 km/h 9.7 km/h 85% 0.0 mm 237 W/m2
11:03 10.3 °C 7.9 °C 1020.3 hPa Calm   3.2 km/h 85% 0.0 mm 243 W/m2
11:08 10.3 °C 7.9 °C 1020.3 hPa WNW 3.2 km/h 4.8 km/h 85% 0.0 mm 58 W/m2
11:13 10.2 °C 7.6 °C 1020.3 hPa WSW 3.2 km/h 4.8 km/h 84% 0.0 mm 53 W/m2
11:18 10.2 °C 7.6 °C 1020.7 hPa WNW 4.7 km/h 6.4 km/h 84% 0.0 mm 72 W/m2
11:23 10.1 °C 7.7 °C 1020.7 hPa WNW 7.9 km/h 8 km/h 85% 0.0 mm 105 W/m2
11:28 10 °C 7.6 °C 1020.3 hPa WNW 3.2 km/h 6.4 km/h 85% 0.0 mm 113 W/m2
11:33 10 °C 7.4 °C 1020.3 hPa WNW 3.2 km/h 9.7 km/h 84% 0.0 mm 142 W/m2
11:38 10 °C 7.6 °C 1020.3 hPa West 3.2 km/h 4.8 km/h 85% 0.0 mm 144 W/m2
11:43 10.1 °C 7.5 °C 1020.3 hPa NW 1.4 km/h 6.4 km/h 84% 0.0 mm 137 W/m2
11:48 10.2 °C 7.6 °C 1020.3 hPa West 3.2 km/h 9.7 km/h 84% 0.0 mm 216 W/m2
11:53 10.3 °C 7.4 °C 1020.3 hPa WNW 3.2 km/h 4.8 km/h 82% 0.0 mm 675 W/m2
11:58 10.4 °C 7.3 °C 1020.3 hPa West 4.7 km/h 8 km/h 81% 0.0 mm 149 W/m2
12:03 10.5 °C 7 °C 1020.3 hPa WNW 1.4 km/h 6.4 km/h 79% 0.0 mm 84 W/m2
12:08 10.6 °C 7.3 °C 1020.3 hPa NW 1.4 km/h 3.2 km/h 80% 0.0 mm 69 W/m2
12:13 10.6 °C 7.3 °C 1020.3 hPa NW 4.7 km/h 6.4 km/h 80% 0.0 mm 56 W/m2
12:18 10.4 °C 6.7 °C 1020.3 hPa WNW 1.4 km/h 8 km/h 78% 0.0 mm 63 W/m2
12:23 10.3 °C 6.6 °C 1020.3 hPa NW 7.9 km/h 9.7 km/h 78% 0.0 mm 97 W/m2
12:28 10.3 °C 6.4 °C 1020.0 hPa West 3.2 km/h 6.4 km/h 77% 0.0 mm 72 W/m2
12:33 10.6 °C 6.4 °C 1020.0 hPa WSW 4.7 km/h 6.4 km/h 75% 0.0 mm 434 W/m2
12:39 10.8 °C 6.4 °C 1020.0 hPa WSW 3.2 km/h 6.4 km/h 74% 0.0 mm 555 W/m2
12:44 10.9 °C 5.8 °C 1020.0 hPa WSW 1.4 km/h 6.4 km/h 71% 0.0 mm 594 W/m2
12:49 11.2 °C 6.3 °C 1020.0 hPa WNW 3.2 km/h 6.4 km/h 72% 0.0 mm 647 W/m2
12:54 11.6 °C 6.1 °C 1020.0 hPa NW 3.2 km/h 6.4 km/h 69% 0.0 mm 691 W/m2
12:59 11.8 °C 6.3 °C 1020.0 hPa WSW 4.7 km/h 6.4 km/h 69% 0.0 mm 744 W/m2
13:04 12.1 °C 6.6 °C 1020.0 hPa West 4.7 km/h 12.9 km/h 69% 0.0 mm 643 W/m2
13:09 12.2 °C 5.6 °C 1020.0 hPa WNW 4.7 km/h 12.9 km/h 64% 0.0 mm 693 W/m2
13:14 12.1 °C 5 °C 1020.0 hPa West 3.2 km/h 8 km/h 62% 0.0 mm 74 W/m2
13:19 11.8 °C 5.4 °C 1020.0 hPa West 4.7 km/h 9.7 km/h 65% 0.0 mm 76 W/m2
13:24 11.8 °C 5.7 °C 1020.0 hPa WNW 3.2 km/h 4.8 km/h 66% 0.0 mm 582 W/m2
13:29 11.8 °C 5.4 °C 1019.6 hPa West 4.7 km/h 11.3 km/h 65% 0.0 mm 591 W/m2
13:34 11.9 °C 5.3 °C 1019.6 hPa WNW 4.7 km/h 8 km/h 64% 0.0 mm 621 W/m2
13:39 12.1 °C 5.7 °C 1019.6 hPa WSW 4.7 km/h 11.3 km/h 65% 0.0 mm 659 W/m2
13:44 12.3 °C 5.7 °C 1019.6 hPa WNW 7.9 km/h 8 km/h 64% 0.0 mm 680 W/m2
13:49 12.6 °C 5.5 °C 1019.6 hPa ENE 4.7 km/h 16.1 km/h 62% 0.0 mm 153 W/m2
13:54 12.7 °C 5.4 °C 1019.6 hPa ENE 3.2 km/h 6.4 km/h 61% 0.0 mm 148 W/m2
13:59 12.7 °C 5.1 °C 1019.6 hPa WNW 6.4 km/h 6.4 km/h 60% 0.0 mm 91 W/m2
14:04 12.4 °C 4.1 °C 1019.6 hPa WNW 6.4 km/h 6.4 km/h 57% 0.0 mm 113 W/m2
14:09 12.2 °C 4.4 °C 1019.6 hPa WNW 4.7 km/h 6.4 km/h 59% 0.0 mm 98 W/m2
14:14 12.2 °C 5.1 °C 1019.6 hPa WNW 3.2 km/h 11.3 km/h 62% 0.0 mm 120 W/m2
14:19 12.3 °C 5.2 °C 1019.6 hPa West 6.4 km/h 11.3 km/h 62% 0.0 mm 105 W/m2
14:24 12.2 °C 5.6 °C 1019.6 hPa West 6.4 km/h 8 km/h 64% 0.0 mm 83 W/m2
14:29 12.3 °C 5.7 °C 1019.6 hPa West 3.2 km/h 9.7 km/h 64% 0.0 mm 62 W/m2
14:34 12.3 °C 5.5 °C 1019.6 hPa West 6.4 km/h 12.9 km/h 63% 0.0 mm 58 W/m2
14:39 12.3 °C 5.5 °C 1019.6 hPa WSW 7.9 km/h 11.3 km/h 63% 0.0 mm 70 W/m2
14:44 12.2 °C 4.4 °C 1019.6 hPa NNW 1.4 km/h 12.9 km/h 59% 0.0 mm 70 W/m2
14:49 12.4 °C 5.6 °C 1019.6 hPa WSW 7.9 km/h 11.3 km/h 63% 0.0 mm 91 W/m2
14:54 12.4 °C 4.9 °C 1019.6 hPa West 6.4 km/h 12.9 km/h 60% 0.0 mm 100 W/m2
14:59 12.3 °C 5.2 °C 1019.3 hPa West 4.7 km/h 11.3 km/h 62% 0.0 mm 148 W/m2
15:04 12.3 °C 5.2 °C 1019.6 hPa West 3.2 km/h 12.9 km/h 62% 0.0 mm 213 W/m2
15:09 12.4 °C 5.6 °C 1019.3 hPa West 6.4 km/h 11.3 km/h 63% 0.0 mm 288 W/m2
15:14 12.6 °C 5 °C 1019.3 hPa West 6.4 km/h 17.7 km/h 60% 0.0 mm 279 W/m2
15:19 12.6 °C 5.3 °C 1019.3 hPa NW 3.2 km/h 8 km/h 61% 0.0 mm 144 W/m2
15:24 12.5 °C 5.4 °C 1019.3 hPa WNW 6.4 km/h 17.7 km/h 62% 0.0 mm 156 W/m2
15:29 12.5 °C 5.6 °C 1019.3 hPa WNW 4.7 km/h 11.3 km/h 63% 0.0 mm 202 W/m2
15:34 12.6 °C 5.7 °C 1019.6 hPa West 6.4 km/h 9.7 km/h 63% 0.0 mm 204 W/m2
15:39 12.6 °C 5.7 °C 1019.6 hPa West 6.4 km/h 12.9 km/h 63% 0.0 mm 230 W/m2
15:44 12.7 °C 5.4 °C 1019.3 hPa NNW 1.4 km/h 8 km/h 61% 0.0 mm 77 W/m2
15:49 12.7 °C 5.1 °C 1019.3 hPa NW 3.2 km/h 6.4 km/h 60% 0.0 mm 104 W/m2
15:54 12.8 °C 5.2 °C 1019.3 hPa NW 1.4 km/h 6.4 km/h 60% 0.0 mm 171 W/m2
15:59 12.8 °C 5 °C 1019.3 hPa WNW 4.7 km/h 9.7 km/h 59% 0.0 mm 141 W/m2
16:04 12.8 °C 5 °C 1019.6 hPa WSW 6.4 km/h 14.5 km/h 59% 0.0 mm 165 W/m2
16:09 12.7 °C 4.9 °C 1019.6 hPa NW 7.9 km/h 9.7 km/h 59% 0.0 mm 202 W/m2
16:14 12.8 °C 4.7 °C 1019.6 hPa West 6.4 km/h 12.9 km/h 58% 0.0 mm 401 W/m2
16:19 13 °C 4.9 °C 1019.3 hPa WNW 13 km/h 12.9 km/h 58% 0.0 mm 490 W/m2
16:24 13.1 °C 5.3 °C 1019.3 hPa West 6.4 km/h 9.7 km/h 59% 0.0 mm 174 W/m2
16:29 13.1 °C 5 °C 1019.3 hPa WNW 4.7 km/h 12.9 km/h 58% 0.0 mm 455 W/m2
16:34 13.1 °C 5.3 °C 1019.3 hPa West 4.7 km/h 8 km/h 59% 0.0 mm 141 W/m2
16:39 12.9 °C 5.3 °C 1019.3 hPa NW 11.1 km/h 16.1 km/h 60% 0.0 mm 91 W/m2
16:44 12.6 °C 5.3 °C 1019.6 hPa WNW 7.9 km/h 14.5 km/h 61% 0.0 mm 70 W/m2
16:49 12.3 °C 5.5 °C 1019.6 hPa West 6.4 km/h 9.7 km/h 63% 0.0 mm 69 W/m2
16:54 12.2 °C 5.4 °C 1019.6 hPa WSW 7.9 km/h 12.9 km/h 63% 0.0 mm 70 W/m2
16:59 12.2 °C 5.6 °C 1019.6 hPa WNW 6.4 km/h 9.7 km/h 64% 0.0 mm 86 W/m2
17:04 12.1 °C 5.7 °C 1019.6 hPa West 3.2 km/h 6.4 km/h 65% 0.0 mm 118 W/m2
17:09 12.2 °C 5.8 °C 1019.6 hPa WNW 3.2 km/h 12.9 km/h 65% 0.0 mm 113 W/m2
17:14 12.2 °C 6 °C 1019.6 hPa WSW 7.9 km/h 14.5 km/h 66% 0.0 mm 93 W/m2
17:19 12.2 °C 6 °C 1019.6 hPa West 6.4 km/h 14.5 km/h 66% 0.0 mm 91 W/m2
17:24 12 °C 5.8 °C 1019.6 hPa WNW 7.9 km/h 12.9 km/h 66% 0.0 mm 97 W/m2
17:30 12.1 °C 5.9 °C 1019.6 hPa NW 3.2 km/h 12.9 km/h 66% 0.0 mm 86 W/m2
17:35 12.1 °C 6.4 °C 1019.6 hPa West 4.7 km/h 12.9 km/h 68% 0.0 mm 81 W/m2
17:40 11.8 °C 6.5 °C 1019.6 hPa West 6.4 km/h 14.5 km/h 70% 0.0 mm 90 W/m2
17:45 11.7 °C 6.8 °C 1019.6 hPa West 4.7 km/h 8 km/h 72% 0.0 mm 83 W/m2
17:50 11.6 °C 6.9 °C 1019.6 hPa NW 6.4 km/h 16.1 km/h 73% 0.0 mm 65 W/m2
17:55 11.3 °C 6.6 °C 1019.6 hPa WNW 6.4 km/h 11.3 km/h 73% 0.0 mm 60 W/m2
18:00 11.3 °C 6.8 °C 1019.6 hPa West 9.7 km/h 11.3 km/h 74% 0.0 mm 51 W/m2
18:05 11.2 °C 6.7 °C 1019.6 hPa WSW 3.2 km/h 8 km/h 74% 0.0 mm 44 W/m2
18:10 11.1 °C 6.6 °C 1019.6 hPa West 9.7 km/h 11.3 km/h 74% 0.0 mm 40 W/m2
18:15 11.1 °C 6.8 °C 1019.6 hPa West 4.7 km/h 8 km/h 75% 0.0 mm 35 W/m2
18:20 11 °C 6.7 °C 1020.0 hPa West 4.7 km/h 11.3 km/h 75% 0.0 mm 32 W/m2
18:25 10.9 °C 6.6 °C 1020.0 hPa West 3.2 km/h 9.7 km/h 75% 0.0 mm 25 W/m2
18:30 10.9 °C 6.8 °C 1020.0 hPa WNW 4.7 km/h 11.3 km/h 76% 0.0 mm 18 W/m2
18:35 10.8 °C 6.9 °C 1020.0 hPa West 4.7 km/h 11.3 km/h 77% 0.0 mm 12 W/m2
18:40 10.7 °C 7 °C 1020.0 hPa West 3.2 km/h 6.4 km/h 78% 0.0 mm 11 W/m2
18:45 10.6 °C 6.9 °C 1020.0 hPa West 3.2 km/h 6.4 km/h 78% 0.0 mm 7 W/m2
18:50 10.5 °C 7 °C 1020.0 hPa West 4.7 km/h 4.8 km/h 79% 0.0 mm 5 W/m2
18:55 10.4 °C 6.9 °C 1020.0 hPa West 4.7 km/h 6.4 km/h 79% 0.0 mm 0 W/m2
19:00 10.2 °C 6.7 °C 1020.0 hPa West 3.2 km/h 11.3 km/h 79% 0.0 mm 0 W/m2
19:05 10.1 °C 6.8 °C 1020.0 hPa West 3.2 km/h 8 km/h 80% 0.0 mm 0 W/m2
19:10 10 °C 6.7 °C 1020.0 hPa WNW 7.9 km/h 11.3 km/h 80% 0.0 mm 0 W/m2
19:15 9.9 °C 6.6 °C 1020.0 hPa WSW 6.4 km/h 11.3 km/h 80% 0.0 mm 0 W/m2
19:20 9.9 °C 6.6 °C 1020.3 hPa West 9.7 km/h 11.3 km/h 80% 0.0 mm 0 W/m2
19:25 9.9 °C 6.8 °C 1020.3 hPa NW 7.9 km/h 9.7 km/h 81% 0.0 mm 0 W/m2
19:30 9.9 °C 6.8 °C 1020.3 hPa West 4.7 km/h 6.4 km/h 81% 0.0 mm 0 W/m2
19:35 9.9 °C 6.8 °C 1020.3 hPa West 9.7 km/h 12.9 km/h 81% 0.0 mm 0 W/m2
19:40 9.9 °C 6.8 °C 1020.3 hPa WNW 7.9 km/h 11.3 km/h 81% 0.0 mm 0 W/m2
19:45 9.9 °C 6.8 °C 1020.3 hPa West 9.7 km/h 12.9 km/h 81% 0.0 mm 0 W/m2
19:50 9.9 °C 6.8 °C 1020.3 hPa West 4.7 km/h 8 km/h 81% 0.0 mm 0 W/m2
19:55 9.8 °C 6.9 °C 1020.3 hPa West 12.9 km/h 12.9 km/h 82% 0.0 mm 0 W/m2
20:00 9.8 °C 6.9 °C 1020.7 hPa West 3.2 km/h 8 km/h 82% 0.0 mm 0 W/m2
20:05 9.8 °C 6.9 °C 1020.7 hPa WSW 4.7 km/h 6.4 km/h 82% 0.0 mm 0 W/m2
20:10 9.8 °C 6.9 °C 1020.7 hPa West 3.2 km/h 6.4 km/h 82% 0.0 mm 0 W/m2
20:15 9.7 °C 7 °C 1020.7 hPa West 9.7 km/h 9.7 km/h 83% 0.0 mm 0 W/m2
20:20 9.6 °C 6.9 °C 1020.7 hPa West 3.2 km/h 6.4 km/h 83% 0.0 mm 0 W/m2
20:25 9.6 °C 7 °C 1020.7 hPa West 6.4 km/h 9.7 km/h 84% 0.0 mm 0 W/m2
20:30 9.4 °C 6.8 °C 1020.7 hPa West 3.2 km/h 9.7 km/h 84% 0.0 mm 0 W/m2
20:35 9.4 °C 6.8 °C 1020.7 hPa WNW 4.7 km/h 9.7 km/h 84% 0.0 mm 0 W/m2
20:40 9.4 °C 7 °C 1020.7 hPa WNW 4.7 km/h 9.7 km/h 85% 0.0 mm 0 W/m2
20:45 9.4 °C 7 °C 1020.7 hPa West 3.2 km/h 6.4 km/h 85% 0.0 mm 0 W/m2
20:50 9.4 °C 7 °C 1021.0 hPa SW 3.2 km/h 6.4 km/h 85% 0.0 mm 0 W/m2
20:55 9.3 °C 6.9 °C 1021.0 hPa WNW 1.4 km/h 4.8 km/h 85% 0.0 mm 0 W/m2
21:00 9.2 °C 6.8 °C 1021.0 hPa Calm     85% 0.0 mm 0 W/m2
21:05 9.1 °C 6.7 °C 1021.0 hPa Calm   4.8 km/h 85% 0.0 mm 0 W/m2
21:10 8.9 °C 6.7 °C 1021.0 hPa WNW 1.4 km/h 3.2 km/h 86% 0.0 mm 0 W/m2
21:15 8.7 °C 6.5 °C 1021.0 hPa WNW 3.2 km/h 3.2 km/h 86% 0.0 mm 0 W/m2
21:20 8.6 °C 6.7 °C 1021.0 hPa WNW 3.2 km/h 6.4 km/h 88% 0.0 mm 0 W/m2
21:25 8.8 °C 6.9 °C 1021.0 hPa WNW 3.2 km/h 4.8 km/h 88% 0.0 mm 0 W/m2
21:30 8.9 °C 7 °C 1021.0 hPa WNW 3.2 km/h 6.4 km/h 88% 0.0 mm 0 W/m2
21:35 9.1 °C 7.1 °C 1021.0 hPa WNW 3.2 km/h 9.7 km/h 87% 0.0 mm 0 W/m2
21:40 9.2 °C 7.1 °C 1021.0 hPa West 3.2 km/h 6.4 km/h 87% 0.0 mm 0 W/m2
21:45 9.2 °C 7.1 °C 1021.0 hPa WNW 3.2 km/h 4.8 km/h 87% 0.0 mm 0 W/m2
21:50 9.3 °C 7.2 °C 1021.0 hPa West 4.7 km/h 9.7 km/h 87% 0.0 mm 0 W/m2
21:55 9.3 °C 7.1 °C 1021.0 hPa West 4.7 km/h 6.4 km/h 86% 0.0 mm 0 W/m2
22:00 9.3 °C 7.1 °C 1021.3 hPa West 4.7 km/h 11.3 km/h 86% 0.0 mm 0 W/m2
22:05 9.3 °C 7.1 °C 1021.0 hPa WSW 6.4 km/h 9.7 km/h 86% 0.0 mm 0 W/m2
22:10 9.3 °C 7.1 °C 1021.3 hPa WSW 4.7 km/h 6.4 km/h 86% 0.0 mm 0 W/m2
22:15 9.2 °C 7 °C 1021.3 hPa West 3.2 km/h 6.4 km/h 86% 0.0 mm 0 W/m2
22:20 9.2 °C 7 °C 1021.3 hPa WNW 1.4 km/h 4.8 km/h 86% 0.0 mm 0 W/m2
22:25 9.1 °C 6.9 °C 1021.3 hPa WSW 3.2 km/h 9.7 km/h 86% 0.0 mm 0 W/m2
22:31 9.1 °C 6.9 °C 1021.3 hPa West 6.4 km/h 6.4 km/h 86% 0.0 mm 0 W/m2
22:36 9.1 °C 6.9 °C 1021.3 hPa West 11.3 km/h 11.3 km/h 86% 0.0 mm 0 W/m2
22:41 9.1 °C 6.9 °C 1021.3 hPa WNW 3.2 km/h 6.4 km/h 86% 0.0 mm 0 W/m2
22:46 9.1 °C 6.9 °C 1021.3 hPa WSW 6.4 km/h 6.4 km/h 86% 0.0 mm 0 W/m2
22:51 9.1 °C 6.9 °C 1021.3 hPa WSW 3.2 km/h 6.4 km/h 86% 0.0 mm 0 W/m2
22:56 9 °C 6.8 °C 1021.3 hPa West 3.2 km/h 6.4 km/h 86% 0.0 mm 0 W/m2
23:01 9 °C 6.8 °C 1021.3 hPa WNW 3.2 km/h 6.4 km/h 86% 0.0 mm 0 W/m2
23:06 9.1 °C 6.9 °C 1021.3 hPa WNW 4.7 km/h 9.7 km/h 86% 0.0 mm 0 W/m2
23:11 9.1 °C 6.9 °C 1021.3 hPa West 4.7 km/h 4.8 km/h 86% 0.0 mm 0 W/m2
23:16 9.1 °C 6.9 °C 1021.3 hPa West 4.7 km/h 9.7 km/h 86% 0.0 mm 0 W/m2
23:21 9.2 °C 7 °C 1021.3 hPa West 4.7 km/h 6.4 km/h 86% 0.0 mm 0 W/m2
23:26 9.2 °C 7 °C 1021.3 hPa WSW 3.2 km/h 4.8 km/h 86% 0.0 mm 0 W/m2
23:31 9.2 °C 7 °C 1021.3 hPa WSW 3.2 km/h 6.4 km/h 86% 0.0 mm 0 W/m2
23:36 9.3 °C 7.1 °C 1021.3 hPa West 4.7 km/h 4.8 km/h 86% 0.0 mm 0 W/m2
23:41 9.3 °C 7.1 °C 1021.3 hPa West 4.7 km/h 9.7 km/h 86% 0.0 mm 0 W/m2
23:46 9.3 °C 7.1 °C 1021.0 hPa West 4.7 km/h 4.8 km/h 86% 0.0 mm 0 W/m2
23:51 9.2 °C 7 °C 1021.0 hPa West 1.4 km/h 9.7 km/h 86% 0.0 mm 0 W/m2
23:56 9.2 °C 7 °C 1021.0 hPa West 3.2 km/h 6.4 km/h 86% 0.0 mm 0 W/m2
Juneau County Weather
Compliments of Weather Underground - 4 mb